Time;durP1;ratioP1;P1;durP2;ratioP2;P2;SDS_P1;SDS_P2;PMS_P1;PMS_P2;Temp;Humidity;BMP_temperature;BMP_pressure;BME280_temperature;BME280_humidity;BME280_pressure;Samples;Min_cycle;Max_cycle;Signal;HPM_P1;HPM_P2
2020/12/26 00:01:14;;;;;;;1.88;0.82;;;15.40;53.00;;;;;;5097029;28;20036;-79
2020/12/26 00:03:40;;;;;;;3.28;0.85;;;15.40;53.00;;;;;;5097079;28;20039;-77
2020/12/26 00:06:07;;;;;;;3.67;0.80;;;15.40;52.90;;;;;;5096436;28;20391;-78
2020/12/26 00:08:34;;;;;;;2.60;0.57;;;15.40;53.00;;;;;;5096654;28;20047;-78
2020/12/26 00:11:01;;;;;;;2.17;0.85;;;15.40;52.90;;;;;;5096940;28;20051;-78
2020/12/26 00:13:27;;;;;;;2.85;0.63;;;15.40;53.00;;;;;;5097600;28;20040;-79
2020/12/26 00:15:53;;;;;;;1.55;0.52;;;15.40;53.00;;;;;;5096709;28;20119;-77
2020/12/26 00:18:19;;;;;;;1.20;0.50;;;15.40;53.10;;;;;;5096858;28;20048;-77
2020/12/26 00:20:45;;;;;;;2.33;0.88;;;15.30;53.10;;;;;;5096655;28;20052;-77
2020/12/26 00:23:11;;;;;;;1.65;0.50;;;15.30;53.20;;;;;;5079090;28;20044;-78
2020/12/26 00:25:38;;;;;;;2.58;0.45;;;15.40;53.30;;;;;;5096498;28;20114;-77
2020/12/26 00:28:05;;;;;;;2.00;0.50;;;15.30;53.30;;;;;;5096942;28;20118;-78
2020/12/26 00:30:31;;;;;;;2.22;0.73;;;15.40;53.30;;;;;;5097008;28;20048;-78
2020/12/26 00:32:57;;;;;;;1.75;0.60;;;15.30;53.30;;;;;;5095870;28;20162;-79
2020/12/26 00:35:23;;;;;;;3.30;0.93;;;15.30;53.30;;;;;;5095589;28;20105;-78
2020/12/26 00:37:49;;;;;;;2.58;0.47;;;15.30;53.30;;;;;;5096336;28;20458;-78
2020/12/26 00:40:15;;;;;;;1.58;0.38;;;15.30;53.30;;;;;;5096246;28;20044;-78
2020/12/26 00:42:40;;;;;;;1.48;0.35;;;15.30;53.30;;;;;;5093420;28;20044;-78
2020/12/26 00:45:06;;;;;;;2.08;0.73;;;15.30;53.30;;;;;;5095991;28;20115;-77
2020/12/26 00:47:32;;;;;;;1.77;0.40;;;15.30;53.40;;;;;;5096439;28;20358;-78
2020/12/26 00:49:58;;;;;;;2.38;0.47;;;15.30;53.30;;;;;;5096508;28;20055;-78
2020/12/26 00:52:23;;;;;;;2.03;0.38;;;15.20;53.20;;;;;;5095988;28;20400;-78
2020/12/26 00:54:49;;;;;;;1.38;0.38;;;15.20;53.30;;;;;;5095267;28;20059;-80
2020/12/26 00:57:15;;;;;;;1.20;0.32;;;15.20;53.30;;;;;;5096114;28;20082;-78
2020/12/26 00:59:41;;;;;;;1.42;0.38;;;15.20;53.30;;;;;;5095976;28;20463;-79
2020/12/26 01:02:07;;;;;;;1.20;0.40;;;15.20;53.30;;;;;;5095226;28;20112;-78
2020/12/26 01:04:32;;;;;;;1.77;0.38;;;15.20;53.30;;;;;;5096039;28;20114;-77
2020/12/26 01:06:59;;;;;;;1.15;0.22;;;15.20;53.40;;;;;;5095410;28;20048;-77
2020/12/26 01:09:25;;;;;;;1.10;0.30;;;15.20;53.40;;;;;;5094911;28;20061;-78
2020/12/26 01:11:51;;;;;;;0.90;0.28;;;15.20;53.40;;;;;;5095838;28;20047;-76
2020/12/26 01:14:17;;;;;;;0.77;0.20;;;15.20;53.50;;;;;;5096577;28;20040;-79
2020/12/26 01:16:48;;;;;;;1.80;0.50;;;15.20;53.50;;;;;;5095960;28;20096;-78
2020/12/26 01:19:14;;;;;;;1.92;0.63;;;15.10;53.40;;;;;;5095369;28;20128;-78
2020/12/26 01:21:39;;;;;;;3.17;0.60;;;15.10;53.40;;;;;;5096043;28;20405;-77
2020/12/26 01:24:05;;;;;;;1.00;0.20;;;15.10;53.50;;;;;;5095809;28;20048;-79
2020/12/26 01:26:31;;;;;;;1.08;0.38;;;15.10;53.60;;;;;;5095159;28;20119;-77
2020/12/26 01:28:57;;;;;;;1.77;0.40;;;15.10;53.50;;;;;;5095656;28;20032;-77
2020/12/26 01:31:22;;;;;;;0.90;0.30;;;15.10;53.40;;;;;;5094304;28;20146;-77
2020/12/26 01:33:48;;;;;;;2.08;0.30;;;15.10;53.50;;;;;;5095634;28;20044;-78
2020/12/26 01:36:14;;;;;;;1.65;0.30;;;15.10;53.70;;;;;;5095981;28;20355;-77
2020/12/26 01:38:40;;;;;;;0.95;0.20;;;15.10;53.80;;;;;;5095691;28;20055;-79
2020/12/26 01:41:06;;;;;;;1.90;0.30;;;15.10;53.70;;;;;;5096064;28;20059;-78
2020/12/26 01:43:32;;;;;;;2.63;0.35;;;15.10;53.80;;;;;;5095658;28;20058;-76
2020/12/26 01:45:58;;;;;;;2.20;0.22;;;15.10;53.80;;;;;;5077124;28;20051;-78
2020/12/26 01:48:25;;;;;;;1.48;0.20;;;15.10;53.80;;;;;;5095193;28;20479;-77
2020/12/26 01:50:53;;;;;;;1.35;0.20;;;15.10;53.70;;;;;;5094465;28;20072;-78
2020/12/26 01:53:19;;;;;;;1.85;0.30;;;15.20;53.70;;;;;;5095221;28;20374;-78
2020/12/26 01:55:48;;;;;;;1.05;0.20;;;15.20;53.70;;;;;;5094960;28;20119;-78
2020/12/26 01:58:15;;;;;;;1.67;0.13;;;15.20;53.70;;;;;;5095250;28;20040;-77
2020/12/26 02:00:41;;;;;;;1.55;0.30;;;15.20;53.70;;;;;;5095011;28;20139;-77
2020/12/26 02:03:08;;;;;;;1.35;0.30;;;15.20;53.70;;;;;;5094803;28;20055;-77
2020/12/26 02:05:34;;;;;;;1.10;0.20;;;15.20;53.60;;;;;;5094993;28;20089;-77
2020/12/26 02:08:01;;;;;;;1.38;0.38;;;15.20;53.60;;;;;;5094611;28;20113;-78
2020/12/26 02:10:27;;;;;;;1.10;0.10;;;15.10;53.50;;;;;;5095321;28;20453;-77
2020/12/26 02:12:53;;;;;;;1.17;0.15;;;15.10;53.60;;;;;;5095520;28;20390;-77
2020/12/26 02:15:18;;;;;;;0.57;0.20;;;15.10;53.50;;;;;;5095029;28;20043;-78
2020/12/26 02:17:44;;;;;;;1.25;0.17;;;15.10;53.50;;;;;;5095258;28;20044;-78
2020/12/26 02:20:10;;;;;;;0.85;0.15;;;15.10;53.60;;;;;;5094914;28;20040;-78
2020/12/26 02:22:36;;;;;;;1.60;0.38;;;15.10;53.60;;;;;;5094416;28;20040;-79
2020/12/26 02:25:02;;;;;;;1.88;0.20;;;15.10;53.70;;;;;;5094949;28;20410;-78
2020/12/26 02:27:28;;;;;;;1.33;0.10;;;15.10;53.80;;;;;;5095083;28;20135;-79
2020/12/26 02:29:54;;;;;;;2.03;0.35;;;15.10;53.70;;;;;;5094741;28;20451;-78
2020/12/26 02:32:19;;;;;;;1.35;0.20;;;15.20;53.80;;;;;;5093963;28;20112;-78
2020/12/26 02:34:45;;;;;;;0.43;0.10;;;15.20;53.70;;;;;;5094801;28;20100;-78
2020/12/26 02:37:11;;;;;;;0.82;0.10;;;15.10;53.60;;;;;;5095286;28;20051;-77
2020/12/26 02:39:37;;;;;;;0.63;0.20;;;15.10;53.60;;;;;;5094447;28;20123;-78
2020/12/26 02:42:02;;;;;;;0.90;0.20;;;15.10;53.60;;;;;;5094860;28;20044;-77
2020/12/26 02:44:28;;;;;;;0.85;0.10;;;15.10;53.50;;;;;;5094496;28;20527;-78
2020/12/26 02:46:54;;;;;;;1.92;0.10;;;15.10;53.60;;;;;;5094750;28;20040;-78
2020/12/26 02:49:20;;;;;;;1.05;0.20;;;15.10;53.50;;;;;;5094972;28;20127;-78
2020/12/26 02:51:46;;;;;;;1.98;0.10;;;15.10;53.60;;;;;;5094705;28;20394;-79
2020/12/26 02:54:12;;;;;;;2.58;0.40;;;15.10;53.60;;;;;;5094741;28;20074;-78
2020/12/26 02:56:39;;;;;;;2.05;0.20;;;15.10;53.60;;;;;;5094813;28;20419;-79
2020/12/26 02:59:07;;;;;;;0.70;0.10;;;15.10;53.60;;;;;;5095857;28;20085;-77
2020/12/26 03:01:33;;;;;;;1.45;0.20;;;15.10;53.70;;;;;;5098455;28;20125;-78
2020/12/26 03:03:58;;;;;;;1.38;0.43;;;15.10;53.60;;;;;;5098252;28;20138;-77
2020/12/26 03:06:24;;;;;;;1.05;0.20;;;15.10;53.60;;;;;;5098618;28;20040;-78
2020/12/26 03:08:51;;;;;;;2.38;0.40;;;15.10;53.70;;;;;;5098298;28;20043;-77
2020/12/26 03:11:16;;;;;;;3.13;0.30;;;15.10;53.70;;;;;;5097987;28;20044;-78
2020/12/26 03:13:42;;;;;;;1.67;0.25;;;15.10;53.70;;;;;;5097716;28;20044;-77
2020/12/26 03:16:08;;;;;;;1.67;0.30;;;15.10;53.70;;;;;;5097886;28;20359;-77
2020/12/26 03:18:34;;;;;;;1.42;0.20;;;15.10;53.70;;;;;;5097800;28;20080;-76
2020/12/26 03:20:59;;;;;;;0.68;0.10;;;15.10;53.70;;;;;;5098455;28;20044;-79
2020/12/26 03:23:25;;;;;;;1.55;0.10;;;15.20;53.70;;;;;;5079050;28;20526;-77
2020/12/26 03:25:51;;;;;;;1.85;0.20;;;15.20;53.70;;;;;;5098277;28;20094;-79
2020/12/26 03:28:17;;;;;;;1.65;0.20;;;15.20;53.70;;;;;;5097692;28;20063;-77
2020/12/26 03:30:42;;;;;;;1.13;0.30;;;15.10;53.60;;;;;;5097872;28;20435;-77
2020/12/26 03:33:08;;;;;;;1.60;0.40;;;15.20;53.60;;;;;;5097438;28;20145;-77
2020/12/26 03:35:34;;;;;;;1.77;0.32;;;15.10;53.60;;;;;;5096650;28;20040;-77
2020/12/26 03:38:00;;;;;;;1.55;0.30;;;15.20;53.70;;;;;;5098382;28;20039;-78
2020/12/26 03:40:26;;;;;;;1.70;0.35;;;15.10;53.60;;;;;;5098376;28;20403;-78
2020/12/26 03:42:51;;;;;;;2.05;0.70;;;15.10;53.60;;;;;;5097799;28;20051;-78
2020/12/26 03:45:17;;;;;;;1.40;0.20;;;15.10;53.60;;;;;;5096658;28;20044;-77
2020/12/26 03:47:43;;;;;;;0.80;0.20;;;15.10;53.60;;;;;;5096426;28;20050;-78
2020/12/26 03:50:09;;;;;;;1.77;0.40;;;15.10;53.60;;;;;;5097696;28;20044;-78
2020/12/26 03:52:34;;;;;;;0.95;0.25;;;15.10;53.60;;;;;;5097206;28;20433;-78
2020/12/26 03:55:00;;;;;;;1.25;0.22;;;15.10;53.60;;;;;;5097400;28;20051;-79
2020/12/26 03:57:26;;;;;;;2.03;0.30;;;15.10;53.60;;;;;;5096643;28;20059;-78
2020/12/26 03:59:52;;;;;;;1.83;0.22;;;15.10;53.60;;;;;;5097712;28;20044;-77
2020/12/26 04:02:17;;;;;;;1.85;0.50;;;15.10;53.60;;;;;;5079074;28;20040;-77
2020/12/26 04:04:43;;;;;;;1.45;0.30;;;15.10;53.60;;;;;;5097750;28;20063;-79
2020/12/26 04:07:09;;;;;;;2.05;0.45;;;15.10;53.60;;;;;;5097056;28;20123;-77
2020/12/26 04:09:35;;;;;;;2.00;0.30;;;15.20;53.60;;;;;;5096984;28;20051;-77
2020/12/26 04:12:01;;;;;;;1.80;0.55;;;15.10;53.60;;;;;;5095390;28;20040;-78
2020/12/26 04:14:27;;;;;;;0.88;0.20;;;15.10;53.60;;;;;;5096015;28;20344;-78
2020/12/26 04:16:57;;;;;;;3.15;0.28;;;15.10;53.60;;;;;;5096611;28;20063;-78
2020/12/26 04:19:23;;;;;;;3.38;0.55;;;15.10;53.50;;;;;;5097024;28;20128;-78
2020/12/26 04:21:49;;;;;;;2.20;0.30;;;15.10;53.50;;;;;;5097229;28;20109;-78
2020/12/26 04:24:15;;;;;;;2.83;0.68;;;15.10;53.50;;;;;;5095819;28;20048;-77
2020/12/26 04:26:40;;;;;;;2.58;0.40;;;15.10;53.60;;;;;;5096864;28;20052;-78
2020/12/26 04:29:06;;;;;;;2.20;0.43;;;15.10;53.60;;;;;;5095931;28;20040;-77
2020/12/26 04:31:33;;;;;;;2.03;0.47;;;15.10;53.50;;;;;;5096869;28;20343;-79
2020/12/26 04:33:58;;;;;;;0.85;0.28;;;15.10;53.50;;;;;;5096527;28;20048;-77
2020/12/26 04:36:24;;;;;;;1.58;0.30;;;15.10;53.50;;;;;;5096185;28;20051;-78
2020/12/26 04:38:50;;;;;;;1.95;0.40;;;15.10;53.50;;;;;;5096553;28;20059;-79
2020/12/26 04:41:18;;;;;;;2.03;0.60;;;15.10;53.60;;;;;;5096046;28;20355;-78
2020/12/26 04:43:44;;;;;;;1.23;0.30;;;15.10;53.50;;;;;;5096496;28;20036;-78
2020/12/26 04:46:18;;;;;;;2.30;0.38;;;15.10;53.50;;;;;;5096173;28;20067;-79
2020/12/26 04:49:00;;;;;;;;;;;15.10;53.50;;;;;;5096208;28;20044;-79
2020/12/26 04:51:26;;;;;;;1.45;0.20;;;15.00;53.50;;;;;;5096446;28;19926;-77
2020/12/26 04:54:10;;;;;;;2.15;0.30;;;15.00;53.60;;;;;;5078449;28;20518;-78
2020/12/26 04:56:41;;;;;;;1.10;0.30;;;15.10;53.60;;;;;;5095988;28;20074;-77
2020/12/26 04:59:09;;;;;;;2.60;0.55;;;15.10;53.60;;;;;;5095736;28;20048;-78
2020/12/26 05:01:37;;;;;;;1.00;0.20;;;15.10;53.50;;;;;;5096309;28;20048;-79
2020/12/26 05:04:03;;;;;;;2.03;0.28;;;15.10;53.50;;;;;;5096273;28;20063;-77
2020/12/26 05:06:31;;;;;;;1.90;0.52;;;15.10;53.50;;;;;;5095371;28;20047;-78
2020/12/26 05:08:58;;;;;;;1.45;0.30;;;15.10;53.50;;;;;;5095200;28;20091;-78
2020/12/26 05:11:24;;;;;;;2.30;0.43;;;15.10;53.50;;;;;;5096058;28;20059;-78
2020/12/26 05:13:50;;;;;;;2.70;0.50;;;15.10;53.50;;;;;;5077638;28;20075;-78
2020/12/26 05:16:16;;;;;;;0.93;0.32;;;15.10;53.50;;;;;;5095625;28;20044;-79
2020/12/26 05:18:42;;;;;;;2.67;0.55;;;15.10;53.50;;;;;;5095684;28;20107;-77
2020/12/26 05:21:08;;;;;;;1.38;0.20;;;15.10;53.50;;;;;;5095580;28;20044;-77
2020/12/26 05:23:35;;;;;;;2.10;0.52;;;15.10;53.50;;;;;;5095014;28;20036;-78
2020/12/26 05:26:01;;;;;;;3.55;0.38;;;15.10;53.50;;;;;;5095799;28;20051;-78
2020/12/26 05:28:33;;;;;;;3.03;0.28;;;15.10;53.60;;;;;;5096306;28;20435;-77
2020/12/26 05:31:06;;;;;;;3.55;0.60;;;15.10;53.70;;;;;;5095165;28;20044;-75
2020/12/26 05:33:34;;;;;;;10.20;0.60;;;15.10;53.70;;;;;;5094543;28;20081;-78
2020/12/26 05:36:06;;;;;;;2.85;0.60;;;15.20;53.80;;;;;;5094784;28;20454;-77
2020/12/26 05:38:35;;;;;;;2.78;0.30;;;15.20;54.60;;;;;;5095138;28;20050;-81
2020/12/26 05:41:02;;;;;;;5.40;0.60;;;15.30;54.10;;;;;;5077776;28;20110;-81
2020/12/26 05:43:32;;;;;;;4.93;0.77;;;15.40;54.30;;;;;;5077380;28;20032;-81
2020/12/26 05:45:58;;;;;;;7.22;1.33;;;15.50;54.50;;;;;;5060171;28;20058;-80
2020/12/26 05:48:27;;;;;;;6.57;0.90;;;15.50;54.40;;;;;;5095687;28;20036;-80
2020/12/26 05:50:58;;;;;;;7.93;0.82;;;15.60;54.50;;;;;;5077034;28;20056;-79
2020/12/26 05:53:25;;;;;;;6.50;0.88;;;15.70;54.70;;;;;;5095440;28;20032;-79
2020/12/26 05:55:51;;;;;;;6.07;1.10;;;15.80;54.70;;;;;;5077603;28;20036;-81
2020/12/26 05:58:22;;;;;;;4.13;0.80;;;15.90;54.80;;;;;;5094680;28;20062;-79
2020/12/26 06:00:48;;;;;;;6.38;0.60;;;15.90;54.90;;;;;;5077056;28;20435;-81
2020/12/26 06:03:23;;;;;;;3.88;0.77;;;16.00;54.90;;;;;;5095224;28;20050;-82
2020/12/26 06:05:50;;;;;;;6.00;0.70;;;16.10;54.90;;;;;;5095248;28;20093;-81
2020/12/26 06:08:17;;;;;;;6.28;0.95;;;16.10;54.90;;;;;;5077184;28;20122;-79
2020/12/26 06:11:03;;;;;;;5.05;0.60;;;16.20;54.90;;;;;;5095262;28;20120;-80
2020/12/26 06:13:31;;;;;;;4.32;0.55;;;16.20;54.80;;;;;;5077816;28;20040;-80
2020/12/26 06:16:09;;;;;;;9.55;1.38;;;16.30;54.80;;;;;;5094907;28;20040;-81
2020/12/26 06:18:40;;;;;;;6.30;0.85;;;16.30;54.90;;;;;;5077268;28;20051;-79
2020/12/26 06:21:17;;;;;;;3.53;0.63;;;16.40;54.90;;;;;;5094425;28;20474;-82
2020/12/26 06:24:07;;;;;;;7.82;0.68;;;16.40;54.80;;;;;;5062216;28;20508;-77
2020/12/26 06:26:35;;;;;;;6.70;0.90;;;16.50;54.80;;;;;;5095096;28;20063;-78
2020/12/26 06:29:03;;;;;;;3.42;0.60;;;16.50;54.80;;;;;;5095111;28;20050;-76
2020/12/26 06:31:29;;;;;;;4.03;0.75;;;16.50;54.80;;;;;;5094329;28;20048;-78
2020/12/26 06:33:55;;;;;;;6.45;0.90;;;16.60;54.80;;;;;;5096413;28;20105;-77
2020/12/26 06:36:22;;;;;;;9.35;0.63;;;16.60;54.90;;;;;;5098611;28;20055;-78
2020/12/26 06:38:48;;;;;;;6.20;1.10;;;16.80;54.90;;;;;;5098707;28;20115;-76
2020/12/26 06:41:16;;;;;;;8.50;1.00;;;16.90;54.80;;;;;;5097635;28;20136;-77
2020/12/26 06:43:58;;;;;;;5.43;0.80;;;17.00;54.80;;;;;;5098809;28;20040;-78
2020/12/26 06:46:23;;;;;;;6.68;0.77;;;17.00;54.90;;;;;;5098375;28;20058;-79
2020/12/26 06:48:55;;;;;;;8.80;1.05;;;17.10;54.80;;;;;;5098361;28;20127;-78
2020/12/26 06:51:26;;;;;;;6.43;0.73;;;17.10;54.70;;;;;;5080319;28;20052;-78
2020/12/26 06:53:54;;;;;;;7.03;0.63;;;17.20;54.70;;;;;;5099106;28;20055;-78
2020/12/26 06:56:35;;;;;;;6.50;0.60;;;17.30;54.70;;;;;;5098472;28;20459;-77
2020/12/26 06:59:12;;;;;;;7.07;1.10;;;17.30;54.70;;;;;;5097868;28;20059;-78
2020/12/26 07:01:44;;;;;;;5.40;0.73;;;17.40;54.60;;;;;;5097590;28;20085;-78
2020/12/26 07:04:20;;;;;;;8.68;0.90;;;17.40;54.60;;;;;;5089433;28;20040;-77
2020/12/26 07:06:47;;;;;;;5.00;0.60;;;17.50;54.50;;;;;;5098535;28;20054;-78
2020/12/26 07:09:20;;;;;;;6.70;0.65;;;17.50;55.00;;;;;;5080225;28;20515;-81
2020/12/26 07:11:51;;;;;;;3.58;0.77;;;17.50;54.40;;;;;;5079724;28;20058;-80
2020/12/26 07:14:36;;;;;;;5.30;0.65;;;17.60;54.50;;;;;;5098174;28;20113;-81
2020/12/26 07:17:07;;;;;;;3.50;0.50;;;17.60;54.60;;;;;;5080296;28;20067;-81
2020/12/26 07:19:37;;;;;;;4.28;0.73;;;17.70;54.50;;;;;;5079685;28;20040;-80
2020/12/26 07:22:20;;;;;;;4.88;0.47;;;17.70;54.60;;;;;;5059772;28;20432;-81
2020/12/26 07:24:52;;;;;;;5.10;0.90;;;17.80;54.90;;;;;;5077288;28;20028;-76
2020/12/26 07:27:25;;;;;;;11.82;1.38;;;17.80;54.80;;;;;;5083319;28;20046;-81
2020/12/26 07:29:57;;;;;;;9.47;1.40;;;17.90;54.90;;;;;;5079301;28;20040;-80
2020/12/26 07:33:00;;;;;;;4.47;0.70;;;17.90;54.60;;;;;;5097711;28;20614;-81
2020/12/26 07:35:34;;;;;;;6.82;0.60;;;18.00;54.70;;;;;;5063422;28;20101;-82
2020/12/26 07:38:00;;;;;;;;;;;18.00;54.40;;;;;;5080061;28;20040;-81
2020/12/26 07:40:27;;;;;;;10.68;1.15;;;18.10;54.50;;;;;;5079756;28;19984;-81
2020/12/26 07:42:54;;;;;;;3.60;1.08;;;18.20;54.20;;;;;;5079635;28;20043;-81
2020/12/26 07:45:23;;;;;;;4.38;0.63;;;18.20;54.20;;;;;;5078994;28;20032;-80
2020/12/26 07:47:51;;;;;;;6.10;1.17;;;18.20;54.20;;;;;;5096977;28;20056;-82
2020/12/26 07:50:19;;;;;;;6.95;0.63;;;18.20;54.10;;;;;;5079781;28;20048;-81
2020/12/26 07:52:50;;;;;;;4.07;0.70;;;18.20;54.10;;;;;;5075796;28;20064;-82
2020/12/26 07:55:16;;;;;;;4.78;0.70;;;18.20;54.10;;;;;;5076564;28;20087;-82
2020/12/26 07:57:43;;;;;;;4.32;0.82;;;18.20;54.10;;;;;;5076116;28;20113;-81
2020/12/26 08:00:23;;;;;;;3.03;0.40;;;18.20;54.20;;;;;;5075629;28;20356;-82
2020/12/26 08:02:52;;;;;;;10.60;0.77;;;18.20;54.40;;;;;;5075938;28;20036;-82
2020/12/26 08:05:21;;;;;;;9.35;1.00;;;18.20;54.40;;;;;;5075514;28;20034;-83
2020/12/26 08:11:27;;;;;;;12.32;1.60;;;18.10;54.50;;;;;;5076784;28;20257;-85
2020/12/26 08:14:03;;;;;;;4.55;0.68;;;18.20;54.60;;;;;;5073973;28;20050;-84
2020/12/26 08:16:41;;;;;;;;;;;18.10;54.40;;;;;;5075390;28;20371;-83
2020/12/26 08:19:19;;;;;;;9.27;0.88;;;18.10;54.50;;;;;;5075425;28;20259;-85
2020/12/26 08:22:02;;;;;;;6.68;0.60;;;18.00;54.60;;;;;;5075254;28;20505;-83
2020/12/26 08:24:38;;;;;;;6.25;0.68;;;18.00;54.80;;;;;;5075105;28;20036;-85
2020/12/26 08:27:21;;;;;;;9.98;0.70;;;18.00;54.70;;;;;;5056676;28;20064;-85
2020/12/26 08:29:47;;;;;;;6.38;0.52;;;18.10;54.80;;;;;;5074800;28;20040;-83
2020/12/26 08:32:16;;;;;;;8.27;1.08;;;18.10;54.70;;;;;;5075034;28;20131;-83
2020/12/26 08:34:55;;;;;;;7.03;1.27;;;18.10;54.60;;;;;;5058391;28;20443;-86
2020/12/26 08:37:27;;;;;;;5.07;0.90;;;18.10;54.50;;;;;;5075773;28;20048;-84
2020/12/26 08:40:21;;;;;;;11.43;1.00;;;18.10;54.50;;;;;;5058617;28;20044;-82
2020/12/26 08:42:53;;;;;;;8.70;0.98;;;18.10;54.40;;;;;;5057374;28;20045;-82
2020/12/26 08:45:31;;;;;;;13.00;0.75;;;18.10;54.40;;;;;;5074242;28;20040;-79
2020/12/26 08:52:08;;;;;;;70.20;5.90;;;18.10;54.40;;;;;;5060869;28;20462;-78
2020/12/26 08:55:12;;;;;;;7.75;1.33;;;18.00;54.50;;;;;;5095728;28;20127;-81
2020/12/26 08:58:39;;;;;;;7.88;0.70;;;18.00;54.30;;;;;;5072075;28;20058;-82
2020/12/26 09:01:06;;;;;;;7.68;0.85;;;17.90;54.40;;;;;;5041274;28;20048;-78
2020/12/26 09:03:34;;;;;;;6.50;0.63;;;17.90;54.20;;;;;;5060406;28;20444;-80
2020/12/26 09:06:06;;;;;;;7.60;0.80;;;17.80;54.20;;;;;;5077341;28;20101;-81
2020/12/26 09:08:35;;;;;;;6.38;0.65;;;17.80;54.30;;;;;;5095247;28;20118;-77
2020/12/26 09:11:07;;;;;;;5.75;1.20;;;17.80;54.30;;;;;;5095244;28;20055;-79
2020/12/26 09:13:43;;;;;;;8.80;1.15;;;17.80;54.30;;;;;;5077195;28;20040;-76
2020/12/26 09:16:14;;;;;;;4.93;1.10;;;17.80;54.20;;;;;;5094896;28;20040;-77
2020/12/26 09:18:45;;;;;;;5.00;1.05;;;17.80;54.40;;;;;;5095458;28;20131;-80
2020/12/26 09:21:26;;;;;;;6.63;1.33;;;17.80;54.50;;;;;;5075491;28;20060;-76
2020/12/26 09:23:56;;;;;;;5.38;0.80;;;17.80;54.40;;;;;;5066427;28;20113;-78
2020/12/26 09:26:28;;;;;;;7.65;1.00;;;17.80;54.50;;;;;;5076977;28;20382;-80
2020/12/26 09:28:56;;;;;;;6.82;1.15;;;17.80;54.40;;;;;;5095507;28;20144;-80
2020/12/26 09:31:31;;;;;;;9.95;1.35;;;17.90;54.40;;;;;;5095437;28;20459;-85
2020/12/26 09:34:01;;;;;;;4.82;0.85;;;18.00;54.40;;;;;;5095034;28;20047;-78
2020/12/26 09:59:01;;;;;;;4.45;0.57;;;18.00;55.00;;;;;;5476239;23;20055;-82
2020/12/26 10:01:27;;;;;;;5.80;0.60;;;18.00;55.10;;;;;;4899597;29;20112;-82
2020/12/26 10:03:53;;;;;;;2.83;0.73;;;18.00;55.30;;;;;;4914444;29;20056;-80
2020/12/26 10:06:20;;;;;;;7.65;0.68;;;18.00;55.30;;;;;;4899497;29;20049;-81
2020/12/26 10:08:47;;;;;;;9.85;0.93;;;18.00;55.40;;;;;;4902584;29;20049;-83
2020/12/26 10:11:16;;;;;;;6.68;0.60;;;18.00;55.40;;;;;;4918257;29;20063;-81
2020/12/26 10:13:42;;;;;;;6.43;0.63;;;18.00;55.40;;;;;;4917995;29;20067;-80
2020/12/26 10:16:08;;;;;;;4.45;0.65;;;18.00;55.40;;;;;;4903464;29;20041;-79
2020/12/26 10:18:34;;;;;;;9.40;1.35;;;18.00;55.40;;;;;;4903484;29;20053;-77
2020/12/26 10:21:02;;;;;;;5.70;1.15;;;18.00;55.60;;;;;;4917857;29;20071;-75
2020/12/26 10:23:28;;;;;;;6.65;1.17;;;18.00;55.60;;;;;;4903132;29;20500;-75
2020/12/26 10:25:54;;;;;;;6.90;1.15;;;17.90;55.50;;;;;;4902990;29;20044;-77
2020/12/26 10:28:20;;;;;;;18.25;1.30;;;17.90;55.60;;;;;;4901999;29;20052;-76
2020/12/26 10:30:49;;;;;;;8.23;0.82;;;17.90;55.60;;;;;;4901921;29;20051;-76
2020/12/26 10:33:15;;;;;;;10.80;0.93;;;17.90;55.60;;;;;;4902930;29;20476;-76
2020/12/26 10:35:41;;;;;;;10.27;1.30;;;17.90;55.70;;;;;;4903430;29;20071;-76
2020/12/26 10:38:07;;;;;;;15.50;0.93;;;17.90;55.60;;;;;;4903706;29;20052;-76
2020/12/26 10:40:33;;;;;;;10.27;0.70;;;17.90;55.70;;;;;;4903841;29;20044;-75
2020/12/26 10:42:58;;;;;;;11.68;1.45;;;17.90;55.60;;;;;;4902894;29;20479;-77
2020/12/26 10:45:24;;;;;;;9.13;0.80;;;18.00;55.70;;;;;;4902968;29;20386;-75
2020/12/26 10:47:50;;;;;;;12.57;1.58;;;18.00;55.70;;;;;;4903523;29;20077;-75
2020/12/26 10:50:16;;;;;;;10.10;0.75;;;18.00;55.70;;;;;;4902415;29;20424;-75
2020/12/26 10:52:43;;;;;;;8.27;0.75;;;18.00;55.50;;;;;;4903255;29;20475;-75
2020/12/26 10:55:15;;;;;;;10.70;1.02;;;18.00;55.50;;;;;;4902310;29;20131;-76
2020/12/26 10:57:43;;;;;;;6.57;0.70;;;18.00;55.50;;;;;;4902119;29;20119;-76
2020/12/26 11:00:12;;;;;;;7.18;1.17;;;18.00;55.50;;;;;;4891330;29;20052;-76
2020/12/26 11:02:39;;;;;;;6.95;0.60;;;18.00;55.60;;;;;;4902728;29;20071;-74
2020/12/26 11:05:05;;;;;;;4.28;0.50;;;18.00;55.70;;;;;;4902838;29;20056;-73
2020/12/26 11:07:33;;;;;;;4.72;0.70;;;17.90;55.60;;;;;;4903102;29;20060;-75
2020/12/26 11:09:59;;;;;;;4.97;0.85;;;17.90;55.60;;;;;;4901964;29;20052;-73
2020/12/26 11:12:25;;;;;;;9.13;0.95;;;17.90;55.60;;;;;;4902446;29;20067;-74
2020/12/26 11:14:51;;;;;;;9.90;0.82;;;17.90;55.70;;;;;;4902042;29;20044;-75
2020/12/26 11:17:17;;;;;;;5.80;0.90;;;17.90;55.80;;;;;;4902907;29;20144;-74
2020/12/26 11:19:43;;;;;;;7.43;1.23;;;17.80;55.90;;;;;;4901360;29;20063;-77
2020/12/26 11:22:11;;;;;;;7.97;1.10;;;17.80;55.80;;;;;;4902115;29;20055;-79
2020/12/26 11:24:37;;;;;;;9.32;1.40;;;17.80;55.80;;;;;;4901990;29;20055;-76
2020/12/26 11:27:03;;;;;;;9.82;1.20;;;17.70;55.60;;;;;;4902363;29;20053;-75
2020/12/26 11:29:29;;;;;;;5.97;0.95;;;17.70;55.40;;;;;;4902597;29;20048;-75
2020/12/26 11:31:58;;;;;;;7.50;1.30;;;17.60;55.40;;;;;;4902500;29;20048;-75
2020/12/26 11:34:24;;;;;;;8.07;1.20;;;17.50;55.30;;;;;;4903140;29;20059;-77
2020/12/26 11:36:50;;;;;;;7.63;1.25;;;17.50;55.40;;;;;;4902507;29;20048;-77
2020/12/26 11:39:16;;;;;;;5.00;0.80;;;17.40;55.40;;;;;;4902453;29;20435;-76
2020/12/26 11:41:42;;;;;;;4.22;1.10;;;17.40;55.40;;;;;;4902128;29;20128;-74
2020/12/26 11:44:08;;;;;;;7.07;0.95;;;17.40;55.30;;;;;;4902253;29;20072;-75
2020/12/26 11:46:33;;;;;;;5.72;0.93;;;17.30;55.30;;;;;;4901705;29;20080;-76
2020/12/26 11:49:01;;;;;;;5.32;0.73;;;17.20;55.20;;;;;;4902818;29;20041;-76
2020/12/26 11:51:27;;;;;;;3.78;0.82;;;17.20;55.20;;;;;;4901854;29;20044;-76
2020/12/26 11:53:52;;;;;;;5.35;1.08;;;17.20;55.20;;;;;;4902028;29;20091;-79
2020/12/26 11:56:19;;;;;;;3.47;0.85;;;17.20;55.20;;;;;;4902165;29;20064;-75
2020/12/26 11:58:45;;;;;;;2.63;0.73;;;17.10;55.10;;;;;;4902391;29;20060;-76
2020/12/26 12:01:16;;;;;;;4.57;0.90;;;17.10;55.10;;;;;;4902021;29;20051;-74
2020/12/26 12:03:43;;;;;;;6.03;0.98;;;17.10;55.00;;;;;;4901763;29;20132;-75
2020/12/26 12:06:13;;;;;;;6.53;1.25;;;17.00;55.00;;;;;;4901855;29;20100;-76
2020/12/26 12:08:41;;;;;;;4.07;0.75;;;17.00;54.80;;;;;;4901710;29;20346;-76
2020/12/26 12:11:07;;;;;;;2.70;0.75;;;17.00;54.80;;;;;;4901965;29;20063;-75
2020/12/26 12:13:33;;;;;;;2.40;0.77;;;16.90;54.80;;;;;;4901872;29;20048;-78
2020/12/26 12:15:58;;;;;;;2.70;0.70;;;16.90;54.80;;;;;;4901694;29;20071;-77
2020/12/26 12:18:24;;;;;;;5.45;1.20;;;16.90;54.80;;;;;;4901574;29;20430;-75
2020/12/26 12:20:50;;;;;;;4.22;1.00;;;16.90;54.80;;;;;;4901852;29;20049;-76
2020/12/26 12:23:16;;;;;;;3.20;0.77;;;16.80;54.80;;;;;;4902127;29;20437;-75
2020/12/26 12:25:42;;;;;;;1.67;0.80;;;16.80;54.70;;;;;;4901662;29;20080;-75
2020/12/26 12:28:08;;;;;;;3.67;0.90;;;16.80;54.70;;;;;;4901654;29;20466;-77
2020/12/26 12:30:34;;;;;;;3.80;0.93;;;16.80;54.70;;;;;;4900405;29;20048;-76
2020/12/26 12:33:00;;;;;;;4.35;1.00;;;16.70;54.60;;;;;;4900792;29;20049;-75
2020/12/26 12:35:25;;;;;;;1.65;0.43;;;16.70;54.60;;;;;;4901092;29;20049;-78
2020/12/26 12:37:51;;;;;;;4.03;1.08;;;16.70;54.60;;;;;;4901169;29;20052;-76
2020/12/26 12:40:18;;;;;;;2.95;0.90;;;16.60;54.50;;;;;;4901123;29;20058;-74
2020/12/26 12:42:44;;;;;;;3.67;0.90;;;16.60;54.50;;;;;;4901832;29;20433;-75
2020/12/26 12:45:10;;;;;;;3.28;0.63;;;16.60;54.40;;;;;;4901296;29;20052;-76
2020/12/26 12:47:36;;;;;;;4.03;0.90;;;16.60;54.40;;;;;;4901416;29;20132;-76
2020/12/26 12:50:06;;;;;;;4.07;0.88;;;16.60;54.40;;;;;;4901315;29;20420;-75
2020/12/26 12:52:31;;;;;;;3.03;1.08;;;16.50;54.40;;;;;;4900873;29;20052;-75
2020/12/26 12:54:57;;;;;;;3.42;1.13;;;16.50;54.40;;;;;;4901596;29;20059;-77
2020/12/26 12:57:23;;;;;;;1.70;0.80;;;16.50;54.40;;;;;;4901369;29;20072;-76
2020/12/26 12:59:49;;;;;;;1.65;0.60;;;16.50;54.50;;;;;;4901159;29;20052;-76
2020/12/26 13:02:14;;;;;;;3.25;0.73;;;16.40;54.40;;;;;;4900775;29;20100;-76
2020/12/26 13:04:40;;;;;;;2.92;0.85;;;16.40;54.50;;;;;;4900664;29;20036;-75
2020/12/26 13:07:06;;;;;;;2.97;1.00;;;16.40;54.50;;;;;;4900726;29;20067;-76
2020/12/26 13:09:32;;;;;;;2.75;0.70;;;16.40;54.50;;;;;;4900595;29;20131;-74
2020/12/26 13:11:58;;;;;;;2.60;0.60;;;16.30;54.50;;;;;;4900823;29;20056;-76
2020/12/26 13:14:24;;;;;;;2.53;0.65;;;16.30;54.50;;;;;;4900798;29;20045;-76
2020/12/26 13:16:50;;;;;;;3.72;0.70;;;16.30;54.50;;;;;;4900186;29;20045;-75
2020/12/26 13:19:16;;;;;;;2.05;0.77;;;16.30;54.60;;;;;;4900679;29;20048;-77
2020/12/26 13:21:41;;;;;;;1.40;0.57;;;16.30;54.60;;;;;;4901061;29;20052;-76
2020/12/26 13:24:07;;;;;;;3.45;0.82;;;16.30;54.60;;;;;;4900732;29;20060;-74